Main page
Satellite images 10-day forecastsClimateMarine weather Cyclones Lightning AirportsFAQ Newsletter About
Weather : Europe Africa North America South America Asia Australia-Oceania Others
Languages Contact

Eleusina, Greece

latitude: 38-04N, longitude: 023-33E, elevation: 44 m


METAR: LGEL 030720Z 35010KT CAVOK 29/11 Q1019
TAF: LGEL 030500Z 0306/0406 33015KT 9999 FEW025 BECMG 0306/0308 34015G25KT SCT030

Time: 10:50 (07:50 UTC)

Current weather observation

The report was made 30 minutes ago, at 07:20 UTC
Wind 10 kt from the North
Temperature 29°C
Humidity 33%
Pressure 1019 hPa
Visibility 10 km or more
no clouds below 1500 m and no cumulonimbus

Change units

Forecast

The report was made 2 hours and 50 minutes ago, at 05:00 UTC
Forecast valid from 03 at 06 UTC to 04 at 06 UTC
Wind 15 kt from the North/Northwest
Visibility 10 km or more
Few clouds at a height of 2500 ft
Becoming
from 03 at 06 UTC to 03 at 08 UTC
Wind 15 kt from the North/Northwest with gusts up to 25 kt
Scattered clouds at a height of 3000 ft
The information on this site is subject to a disclaimer
Weather : Europe Africa North America South America Asia Australia-Oceania Others
Satellite images 10-day forecastsClimateMarine weather Cyclones Lightning AirportsFAQ Languages Contact Newsletter About